createdAt,value
2023-05-22T00:01:56.527Z,15.60
2023-05-22T00:04:23.442Z,15.60
2023-05-22T00:06:50.331Z,15.50
2023-05-22T00:09:17.318Z,15.50
2023-05-22T00:11:44.308Z,15.40
2023-05-22T00:14:13.396Z,15.40
2023-05-22T00:16:40.343Z,15.30
2023-05-22T00:19:13.137Z,15.20
2023-05-22T00:21:40.245Z,15.20
2023-05-22T00:24:07.483Z,15.10
2023-05-22T00:26:34.360Z,15.10
2023-05-22T00:29:01.410Z,15.00
2023-05-22T00:31:28.192Z,14.90
2023-05-22T00:33:55.112Z,14.90
2023-05-22T00:36:22.025Z,14.80
2023-05-22T00:38:48.839Z,14.70
2023-05-22T00:41:15.830Z,14.70
2023-05-22T00:43:42.822Z,14.60
2023-05-22T00:46:09.972Z,14.60
2023-05-22T00:48:36.926Z,14.50
2023-05-22T00:51:04.018Z,14.50
2023-05-22T00:53:31.633Z,14.40
2023-05-22T00:55:59.564Z,14.40
2023-05-22T00:58:27.448Z,14.40
2023-05-22T01:00:56.838Z,14.30
2023-05-22T01:03:26.929Z,14.20
2023-05-22T01:05:55.372Z,14.20
2023-05-22T01:08:22.520Z,14.10
2023-05-22T01:10:56.929Z,14.10
2023-05-22T01:13:38.684Z,14.00
2023-05-22T01:16:32.232Z,14.00
2023-05-22T01:19:12.489Z,14.00
2023-05-22T01:21:47.898Z,13.90
2023-05-22T01:24:37.265Z,13.90
2023-05-22T01:27:25.773Z,13.90
2023-05-22T01:30:01.292Z,13.80
2023-05-22T01:32:28.942Z,13.80
2023-05-22T01:34:56.988Z,13.80
2023-05-22T01:37:24.383Z,13.70
2023-05-22T01:39:51.600Z,13.70
2023-05-22T01:42:18.907Z,13.60
2023-05-22T01:44:46.094Z,13.60
2023-05-22T01:47:12.890Z,13.60
2023-05-22T01:49:39.972Z,13.50
2023-05-22T01:52:15.549Z,13.50
2023-05-22T01:54:46.334Z,13.50
2023-05-22T01:57:12.946Z,13.40
2023-05-22T01:59:45.814Z,13.40
2023-05-22T02:02:14.336Z,13.40
2023-05-22T02:04:43.156Z,13.30
2023-05-22T02:07:12.433Z,13.30
2023-05-22T02:09:40.405Z,13.30
2023-05-22T02:12:07.877Z,13.20
2023-05-22T02:14:35.041Z,13.20
2023-05-22T02:17:02.152Z,13.20
2023-05-22T02:19:28.953Z,13.10
2023-05-22T02:21:55.940Z,13.10
2023-05-22T02:24:23.725Z,13.00
2023-05-22T02:26:50.663Z,13.00
2023-05-22T02:29:17.381Z,13.00
2023-05-22T02:31:44.093Z,13.00
2023-05-22T02:34:11.157Z,12.90
2023-05-22T02:36:37.867Z,12.90
2023-05-22T02:39:05.225Z,12.90
2023-05-22T02:41:32.078Z,12.80
2023-05-22T02:43:58.957Z,12.80
2023-05-22T02:46:25.692Z,12.70
2023-05-22T02:48:52.355Z,12.70
2023-05-22T02:51:19.038Z,12.70
2023-05-22T02:53:45.781Z,12.60
2023-05-22T02:56:12.493Z,12.60
2023-05-22T02:58:39.370Z,12.60
2023-05-22T03:01:12.094Z,12.60
2023-05-22T03:03:38.950Z,12.50
2023-05-22T03:06:06.241Z,12.50
2023-05-22T03:08:32.958Z,12.40
2023-05-22T03:11:00.438Z,12.40
2023-05-22T03:13:27.130Z,12.40
2023-05-22T03:15:53.944Z,12.40
2023-05-22T03:18:21.751Z,12.40
2023-05-22T03:20:48.612Z,12.30
2023-05-22T03:23:15.549Z,12.40
2023-05-22T03:25:42.444Z,12.30
2023-05-22T03:28:09.191Z,12.30
2023-05-22T03:30:35.924Z,12.40
2023-05-22T03:33:02.653Z,12.40
2023-05-22T03:35:29.540Z,12.40
2023-05-22T03:37:56.297Z,12.40
2023-05-22T03:40:23.041Z,12.40
2023-05-22T03:42:50.031Z,12.40
2023-05-22T03:45:16.862Z,12.40
2023-05-22T03:47:43.694Z,12.40
2023-05-22T03:50:10.531Z,12.40
2023-05-22T03:52:37.277Z,12.50
2023-05-22T03:55:04.338Z,12.50
2023-05-22T03:57:31.020Z,12.50
2023-05-22T04:00:02.749Z,12.60
2023-05-22T04:02:30.265Z,12.60
2023-05-22T04:05:16.879Z,12.70
2023-05-22T04:07:43.653Z,12.70
2023-05-22T04:10:10.616Z,12.80
2023-05-22T04:12:37.320Z,12.80
2023-05-22T04:15:04.189Z,12.90
2023-05-22T04:17:32.603Z,12.90
2023-05-22T04:20:00.318Z,12.90
2023-05-22T04:22:27.516Z,13.00
2023-05-22T04:24:54.216Z,13.10
2023-05-22T04:27:22.774Z,13.10
2023-05-22T04:29:50.465Z,13.20
2023-05-22T04:32:21.843Z,13.30
2023-05-22T04:34:51.046Z,13.30
2023-05-22T04:37:21.015Z,13.40
2023-05-22T04:39:47.912Z,13.50
2023-05-22T04:42:15.925Z,13.50
2023-05-22T04:44:42.727Z,13.60
2023-05-22T04:47:14.458Z,13.70
2023-05-22T04:49:42.589Z,13.80
2023-05-22T04:52:11.502Z,13.80
2023-05-22T04:54:41.522Z,13.90
2023-05-22T04:57:08.181Z,14.00
2023-05-22T04:59:37.880Z,14.10
2023-05-22T05:04:47.010Z,14.20
2023-05-22T05:07:47.728Z,14.30
2023-05-22T05:10:16.478Z,14.40
2023-05-22T05:12:43.555Z,14.50
2023-05-22T05:15:10.381Z,14.60
2023-05-22T05:17:37.119Z,14.70
2023-05-22T05:20:07.028Z,14.80
2023-05-22T05:25:32.560Z,15.00
2023-05-22T05:27:59.238Z,15.10
2023-05-22T05:30:25.907Z,15.20
2023-05-22T05:32:52.647Z,15.30
2023-05-22T05:35:19.438Z,15.40
2023-05-22T05:37:46.178Z,15.50
2023-05-22T05:40:13.268Z,15.60
2023-05-22T05:42:39.947Z,15.70
2023-05-22T05:45:07.575Z,15.90
2023-05-22T05:47:34.835Z,16.00
2023-05-22T05:53:13.188Z,16.40
2023-05-22T05:55:39.928Z,16.60
2023-05-22T05:58:06.640Z,16.80
2023-05-22T06:00:33.389Z,17.00
2023-05-22T06:03:00.216Z,17.10
2023-05-22T06:05:27.065Z,17.30
2023-05-22T06:07:54.564Z,17.50
2023-05-22T06:10:21.512Z,17.70
2023-05-22T06:12:48.204Z,17.90
2023-05-22T06:15:14.921Z,18.10
2023-05-22T06:17:41.921Z,18.40
2023-05-22T06:20:09.211Z,18.50
2023-05-22T06:22:36.063Z,18.70
2023-05-22T06:25:02.812Z,18.70
2023-05-22T06:27:29.549Z,18.90
2023-05-22T06:29:56.623Z,19.10
2023-05-22T06:32:23.609Z,19.30
2023-05-22T06:34:50.364Z,19.50
2023-05-22T06:37:36.155Z,19.80
2023-05-22T06:40:03.331Z,20.10
2023-05-22T06:42:30.062Z,20.50
2023-05-22T06:44:57.044Z,20.70
2023-05-22T06:47:23.747Z,21.00
2023-05-22T06:49:50.497Z,21.30
2023-05-22T06:52:17.224Z,21.40
2023-05-22T06:54:44.857Z,21.70
2023-05-22T06:57:11.581Z,21.90
2023-05-22T06:59:38.258Z,22.10
2023-05-22T07:02:05.016Z,22.40
2023-05-22T07:05:00.383Z,22.40
2023-05-22T07:07:27.070Z,22.50
2023-05-22T07:09:53.769Z,22.70
2023-05-22T07:12:25.800Z,22.60
2023-05-22T07:14:52.751Z,23.10
2023-05-22T07:17:20.539Z,23.60
2023-05-22T07:19:50.640Z,23.90
2023-05-22T07:22:17.340Z,24.40
2023-05-22T07:24:44.269Z,24.80
2023-05-22T07:27:12.232Z,24.90
2023-05-22T07:29:39.074Z,25.50
2023-05-22T07:32:06.160Z,25.40
2023-05-22T07:34:34.330Z,25.80
2023-05-22T07:37:01.415Z,26.20
2023-05-22T07:39:28.779Z,26.50
2023-05-22T07:41:57.245Z,26.70
2023-05-22T07:44:24.604Z,26.80
2023-05-22T07:46:52.003Z,27.20
2023-05-22T07:49:20.322Z,27.40
2023-05-22T07:51:47.150Z,27.20
2023-05-22T07:54:14.331Z,27.30
2023-05-22T07:56:41.633Z,27.30
2023-05-22T07:59:09.305Z,27.70
2023-05-22T08:05:01.028Z,28.30
2023-05-22T08:07:27.774Z,28.40
2023-05-22T08:09:54.569Z,28.50
2023-05-22T08:12:21.276Z,29.00
2023-05-22T08:14:47.992Z,29.30
2023-05-22T08:17:14.895Z,29.80
2023-05-22T08:19:41.812Z,29.20
2023-05-22T08:22:08.630Z,29.40
2023-05-22T08:24:35.779Z,29.60
2023-05-22T08:27:02.549Z,29.50
2023-05-22T08:29:29.259Z,30.20
2023-05-22T08:31:57.026Z,30.30
2023-05-22T08:34:24.311Z,30.60
2023-05-22T08:36:51.041Z,30.70
2023-05-22T08:39:18.965Z,31.00
2023-05-22T08:41:47.553Z,31.50
2023-05-22T08:44:14.425Z,31.30
2023-05-22T08:46:41.912Z,31.70
2023-05-22T08:49:08.979Z,31.30
2023-05-22T08:51:39.775Z,31.40
2023-05-22T08:54:09.275Z,31.20
2023-05-22T08:56:39.866Z,30.80
2023-05-22T08:59:12.842Z,30.40
2023-05-22T09:01:39.727Z,29.80
2023-05-22T09:04:06.629Z,29.30
2023-05-22T09:06:33.442Z,29.40
2023-05-22T09:09:00.104Z,29.40
2023-05-22T09:11:26.855Z,29.60
2023-05-22T09:14:06.290Z,30.20
2023-05-22T09:16:33.013Z,30.50
2023-05-22T09:18:59.866Z,30.40
2023-05-22T09:21:29.969Z,30.60
2023-05-22T09:24:01.396Z,31.20
2023-05-22T09:29:39.193Z,31.50
2023-05-22T09:32:13.207Z,31.80
2023-05-22T09:34:39.943Z,31.80
2023-05-22T09:37:06.687Z,32.50
2023-05-22T09:39:41.608Z,32.60
2023-05-22T09:42:09.917Z,32.50
2023-05-22T09:44:36.854Z,32.60
2023-05-22T09:47:03.679Z,33.10
2023-05-22T09:49:30.389Z,33.30
2023-05-22T09:51:57.640Z,32.80
2023-05-22T09:54:25.798Z,32.20
2023-05-22T09:56:56.695Z,32.00
2023-05-22T09:59:27.110Z,32.10
2023-05-22T10:01:54.070Z,32.00
2023-05-22T10:04:22.146Z,31.90
2023-05-22T10:06:51.032Z,32.10
2023-05-22T10:09:19.671Z,32.40
2023-05-22T10:11:47.352Z,32.50
2023-05-22T10:14:14.862Z,32.90
2023-05-22T10:16:43.057Z,33.40
2023-05-22T10:19:10.286Z,33.00
2023-05-22T10:21:37.329Z,32.90
2023-05-22T10:24:06.153Z,32.50
2023-05-22T10:26:33.163Z,32.40
2023-05-22T10:29:02.579Z,32.50
2023-05-22T10:31:38.902Z,32.20
2023-05-22T10:34:09.399Z,32.70
2023-05-22T10:36:47.608Z,32.80
2023-05-22T10:39:17.954Z,33.40
2023-05-22T10:41:44.724Z,33.30
2023-05-22T10:44:11.475Z,33.10
2023-05-22T10:46:38.161Z,32.60
2023-05-22T10:49:04.854Z,31.50
2023-05-22T10:51:32.337Z,31.30
2023-05-22T10:54:00.892Z,31.60
2023-05-22T10:56:38.106Z,31.80
2023-05-22T10:59:06.050Z,31.70
2023-05-22T11:01:38.750Z,31.90
2023-05-22T11:04:06.807Z,32.00
2023-05-22T11:06:41.026Z,32.00
2023-05-22T11:09:17.805Z,31.80
2023-05-22T11:11:44.880Z,31.70
2023-05-22T11:14:12.309Z,31.50
2023-05-22T11:16:39.426Z,31.20
2023-05-22T11:19:21.817Z,31.20
2023-05-22T11:21:49.148Z,30.70
2023-05-22T11:24:17.538Z,30.60
2023-05-22T11:26:44.495Z,31.30
2023-05-22T11:29:11.183Z,31.20
2023-05-22T11:31:38.183Z,31.90
2023-05-22T11:34:05.186Z,31.90
2023-05-22T11:36:32.353Z,31.40
2023-05-22T11:39:00.048Z,31.60
2023-05-22T11:41:33.112Z,32.40
2023-05-22T11:44:00.628Z,32.30
2023-05-22T11:46:27.649Z,31.70
2023-05-22T11:48:54.588Z,31.50
2023-05-22T11:51:21.424Z,32.10
2023-05-22T11:53:48.380Z,31.60
2023-05-22T11:56:15.330Z,32.10
2023-05-22T11:58:41.971Z,32.40
2023-05-22T12:01:08.875Z,32.60
2023-05-22T12:03:35.640Z,32.60
2023-05-22T12:06:02.701Z,32.20
2023-05-22T12:08:29.529Z,32.40
2023-05-22T12:10:56.521Z,32.80
2023-05-22T12:13:24.120Z,33.00
2023-05-22T12:15:50.970Z,33.10
2023-05-22T12:18:18.240Z,33.00
2023-05-22T12:20:45.032Z,33.40
2023-05-22T12:23:12.442Z,33.60
2023-05-22T12:25:39.183Z,33.10
2023-05-22T12:28:06.532Z,33.10
2023-05-22T12:30:40.049Z,32.50
2023-05-22T12:33:12.542Z,32.30
2023-05-22T12:35:39.337Z,32.30
2023-05-22T12:38:07.211Z,31.80
2023-05-22T12:40:33.957Z,31.20
2023-05-22T12:43:00.862Z,31.10
2023-05-22T12:45:27.636Z,30.50
2023-05-22T12:47:54.374Z,30.30
2023-05-22T12:50:21.217Z,30.40
2023-05-22T12:52:47.944Z,30.80
2023-05-22T12:55:14.746Z,31.00
2023-05-22T12:57:41.415Z,31.50
2023-05-22T13:00:08.339Z,31.50
2023-05-22T13:02:35.076Z,31.60
2023-05-22T13:05:01.919Z,31.30
2023-05-22T13:07:28.685Z,31.40
2023-05-22T13:09:55.401Z,31.40
2023-05-22T13:12:22.230Z,31.60
2023-05-22T13:14:49.029Z,32.00
2023-05-22T13:17:15.778Z,32.20
2023-05-22T13:19:42.933Z,31.80
2023-05-22T13:22:09.644Z,31.40
2023-05-22T13:24:36.489Z,31.20
2023-05-22T13:27:03.284Z,31.00
2023-05-22T13:29:30.082Z,30.40
2023-05-22T13:31:56.767Z,29.70
2023-05-22T13:34:23.495Z,29.10
2023-05-22T13:36:50.427Z,28.80
2023-05-22T13:39:17.268Z,28.70
2023-05-22T13:41:44.393Z,28.60
2023-05-22T13:44:11.102Z,28.50
2023-05-22T13:46:40.600Z,28.50
2023-05-22T13:49:07.820Z,28.30
2023-05-22T13:51:35.072Z,28.30
2023-05-22T13:54:02.535Z,28.10
2023-05-22T13:56:29.223Z,28.20
2023-05-22T13:58:56.078Z,28.20
2023-05-22T14:01:23.880Z,28.10
2023-05-22T14:03:50.562Z,28.20
2023-05-22T14:06:17.321Z,28.10
2023-05-22T14:08:44.102Z,28.30
2023-05-22T14:11:10.814Z,28.50
2023-05-22T14:13:37.552Z,28.60
2023-05-22T14:16:04.439Z,28.80
2023-05-22T14:18:31.392Z,29.00
2023-05-22T14:20:58.094Z,29.10
2023-05-22T14:23:25.118Z,29.10
2023-05-22T14:25:51.813Z,29.00
2023-05-22T14:28:18.734Z,29.00
2023-05-22T14:30:45.419Z,28.90
2023-05-22T14:33:12.421Z,28.90
2023-05-22T14:35:39.482Z,28.90
2023-05-22T14:38:06.334Z,28.80
2023-05-22T14:40:33.080Z,29.00
2023-05-22T14:42:59.788Z,29.00
2023-05-22T14:45:26.513Z,29.00
2023-05-22T14:47:53.275Z,29.30
2023-05-22T14:50:20.915Z,29.50
2023-05-22T14:52:48.784Z,29.50
2023-05-22T14:55:16.071Z,29.10
2023-05-22T14:57:42.940Z,29.00
2023-05-22T15:00:10.825Z,29.00
2023-05-22T15:02:37.635Z,28.60
2023-05-22T15:05:04.574Z,28.40
2023-05-22T15:07:43.274Z,28.00
2023-05-22T15:10:12.299Z,27.80
2023-05-22T15:12:39.041Z,27.50
2023-05-22T15:15:06.063Z,27.20
2023-05-22T15:17:32.836Z,26.80
2023-05-22T15:19:59.681Z,26.70
2023-05-22T15:22:26.462Z,26.60
2023-05-22T15:25:03.814Z,26.50
2023-05-22T15:27:30.678Z,26.40
2023-05-22T15:29:57.798Z,26.30
2023-05-22T15:32:24.547Z,26.30
2023-05-22T15:34:52.356Z,26.30
2023-05-22T15:37:19.101Z,26.30
2023-05-22T15:39:45.909Z,26.40
2023-05-22T15:42:12.660Z,26.60
2023-05-22T15:44:39.390Z,26.70
2023-05-22T15:47:06.146Z,27.00
2023-05-22T15:49:32.968Z,27.30
2023-05-22T15:51:59.634Z,27.40
2023-05-22T15:54:26.349Z,27.40
2023-05-22T15:56:53.040Z,27.50
2023-05-22T15:59:19.775Z,27.50
2023-05-22T16:01:46.681Z,27.60
2023-05-22T16:04:13.391Z,27.60
2023-05-22T16:06:40.094Z,27.70
2023-05-22T16:09:07.024Z,27.50
2023-05-22T16:11:33.826Z,27.50
2023-05-22T16:14:00.555Z,27.30
2023-05-22T16:16:27.304Z,27.10
2023-05-22T16:18:54.302Z,27.10
2023-05-22T16:21:21.125Z,27.10
2023-05-22T16:23:47.766Z,27.00
2023-05-22T16:26:15.666Z,26.90
2023-05-22T16:28:42.399Z,26.60
2023-05-22T16:31:09.151Z,26.40
2023-05-22T16:33:37.579Z,26.30
2023-05-22T16:36:04.576Z,26.10
2023-05-22T16:38:31.286Z,26.00
2023-05-22T16:40:58.081Z,25.80
2023-05-22T16:43:26.447Z,25.70
2023-05-22T16:45:53.235Z,25.60
2023-05-22T16:48:20.052Z,25.50
2023-05-22T16:50:46.977Z,25.40
2023-05-22T16:53:16.700Z,25.40
2023-05-22T16:55:43.639Z,25.30
2023-05-22T16:58:11.623Z,25.30
2023-05-22T17:00:40.086Z,25.20
2023-05-22T17:03:08.221Z,25.00
2023-05-22T17:05:35.304Z,24.80
2023-05-22T17:08:02.027Z,24.70
2023-05-22T17:10:28.880Z,24.50
2023-05-22T17:12:56.032Z,24.30
2023-05-22T17:15:22.765Z,24.20
2023-05-22T17:17:49.655Z,24.00
2023-05-22T17:20:16.890Z,23.80
2023-05-22T17:22:43.807Z,23.70
2023-05-22T17:25:10.537Z,23.60
2023-05-22T17:27:37.300Z,23.40
2023-05-22T17:30:04.913Z,23.20
2023-05-22T17:35:06.618Z,23.10
2023-05-22T17:37:36.648Z,22.90
2023-05-22T17:40:04.113Z,22.80
2023-05-22T17:42:30.788Z,22.70
2023-05-22T17:44:57.564Z,22.60
2023-05-22T17:47:24.375Z,22.50
2023-05-22T17:49:51.097Z,22.40
2023-05-22T17:52:17.866Z,22.30
2023-05-22T17:54:44.635Z,22.20
2023-05-22T17:57:11.381Z,22.20
2023-05-22T17:59:40.070Z,22.10
2023-05-22T18:02:08.225Z,22.10
2023-05-22T18:04:35.793Z,22.00
2023-05-22T18:07:02.541Z,21.90
2023-05-22T18:09:29.192Z,21.90
2023-05-22T18:11:55.955Z,21.80
2023-05-22T18:14:22.611Z,21.80
2023-05-22T18:16:49.923Z,21.70
2023-05-22T18:19:16.788Z,21.70
2023-05-22T18:21:43.553Z,21.60
2023-05-22T18:24:10.244Z,21.60
2023-05-22T18:26:36.870Z,21.50
2023-05-22T18:29:30.089Z,21.40
2023-05-22T18:31:56.996Z,21.40
2023-05-22T18:34:23.786Z,21.30
2023-05-22T18:36:50.739Z,21.20
2023-05-22T18:39:17.487Z,21.10
2023-05-22T18:41:44.222Z,21.00
2023-05-22T18:44:10.883Z,21.00
2023-05-22T18:46:37.731Z,20.90
2023-05-22T18:49:04.668Z,20.80
2023-05-22T18:51:31.705Z,20.70
2023-05-22T18:53:58.431Z,20.70
2023-05-22T18:56:25.147Z,20.60
2023-05-22T18:58:52.108Z,20.50
2023-05-22T19:01:19.146Z,20.40
2023-05-22T19:03:45.906Z,20.40
2023-05-22T19:06:12.806Z,20.30
2023-05-22T19:08:40.386Z,20.20
2023-05-22T19:11:07.060Z,20.20
2023-05-22T19:13:41.750Z,20.10
2023-05-22T19:16:08.682Z,20.10
2023-05-22T19:18:36.400Z,20.00
2023-05-22T19:21:03.174Z,20.00
2023-05-22T19:23:30.027Z,19.90
2023-05-22T19:25:58.234Z,19.80
2023-05-22T19:28:25.841Z,19.70
2023-05-22T19:30:53.147Z,19.70
2023-05-22T19:33:23.429Z,19.60
2023-05-22T19:35:50.249Z,19.60
2023-05-22T19:38:16.992Z,19.50
2023-05-22T19:40:43.753Z,19.50
2023-05-22T19:43:10.569Z,19.40
2023-05-22T19:45:37.418Z,19.40
2023-05-22T19:48:04.223Z,19.30
2023-05-22T19:50:30.978Z,19.30
2023-05-22T19:52:58.457Z,19.20
2023-05-22T19:55:25.699Z,19.20
2023-05-22T19:57:52.664Z,19.10
2023-05-22T20:00:19.930Z,19.10
2023-05-22T20:02:46.815Z,19.00
2023-05-22T20:05:13.596Z,18.90
2023-05-22T20:07:41.503Z,18.90
2023-05-22T20:10:09.399Z,18.90
2023-05-22T20:12:39.066Z,18.80
2023-05-22T20:15:10.522Z,18.80
2023-05-22T20:17:41.709Z,18.70
2023-05-22T20:20:09.575Z,18.60
2023-05-22T20:22:36.429Z,18.60
2023-05-22T20:25:05.213Z,18.60
2023-05-22T20:27:32.211Z,18.50
2023-05-22T20:30:00.275Z,18.40
2023-05-22T20:32:27.453Z,18.40
2023-05-22T20:34:55.322Z,18.40
2023-05-22T20:37:22.314Z,18.30
2023-05-22T20:39:50.060Z,18.30
2023-05-22T20:42:17.344Z,18.30
2023-05-22T20:44:44.110Z,18.20
2023-05-22T20:47:11.230Z,18.20
2023-05-22T20:49:38.350Z,18.10
2023-05-22T20:52:05.680Z,18.10
2023-05-22T20:54:34.615Z,18.00
2023-05-22T20:57:01.958Z,18.00
2023-05-22T20:59:29.183Z,18.00
2023-05-22T21:01:59.371Z,18.00
2023-05-22T21:04:26.318Z,17.90
2023-05-22T21:06:53.039Z,17.80
2023-05-22T21:09:19.768Z,17.80
2023-05-22T21:11:46.488Z,17.80
2023-05-22T21:14:13.729Z,17.70
2023-05-22T21:16:40.514Z,17.70
2023-05-22T21:19:07.622Z,17.60
2023-05-22T21:21:36.316Z,17.60
2023-05-22T21:24:03.358Z,17.50
2023-05-22T21:26:30.131Z,17.50
2023-05-22T21:28:57.149Z,17.50
2023-05-22T21:31:24.001Z,17.40
2023-05-22T21:33:50.802Z,17.40
2023-05-22T21:36:17.633Z,17.40
2023-05-22T21:38:44.719Z,17.40
2023-05-22T21:41:15.736Z,17.30
2023-05-22T21:43:42.535Z,17.30
2023-05-22T21:46:10.264Z,17.30
2023-05-22T21:48:37.258Z,17.20
2023-05-22T21:51:04.017Z,17.20
2023-05-22T21:53:30.702Z,17.20
2023-05-22T21:55:57.366Z,17.10
2023-05-22T21:58:24.032Z,17.10
2023-05-22T22:00:50.923Z,17.10
2023-05-22T22:03:17.843Z,17.10
2023-05-22T22:05:44.776Z,17.00
2023-05-22T22:08:11.463Z,17.00
2023-05-22T22:10:38.367Z,17.00
2023-05-22T22:13:05.361Z,17.00
2023-05-22T22:15:32.148Z,17.00
2023-05-22T22:18:02.295Z,17.00
2023-05-22T22:20:43.303Z,17.00
2023-05-22T22:23:10.811Z,17.00
2023-05-22T22:25:38.964Z,17.00
2023-05-22T22:28:05.980Z,17.00
2023-05-22T22:30:32.729Z,16.90
2023-05-22T22:32:59.615Z,16.90
2023-05-22T22:35:26.466Z,16.90
2023-05-22T22:37:53.163Z,16.90
2023-05-22T22:40:19.865Z,16.80
2023-05-22T22:42:46.546Z,16.80
2023-05-22T22:45:14.568Z,16.80
2023-05-22T22:47:41.289Z,16.70
2023-05-22T22:50:09.921Z,16.70
2023-05-22T22:52:37.848Z,16.70
2023-05-22T22:55:06.173Z,16.60
2023-05-22T22:57:33.083Z,16.60
2023-05-22T22:59:59.811Z,16.60
2023-05-22T23:02:26.589Z,16.50
2023-05-22T23:04:53.481Z,16.50
2023-05-22T23:07:20.388Z,16.50
2023-05-22T23:09:47.034Z,16.50
2023-05-22T23:12:13.728Z,16.50
2023-05-22T23:14:40.485Z,16.50
2023-05-22T23:17:07.239Z,16.40
2023-05-22T23:19:34.003Z,16.40
2023-05-22T23:22:00.710Z,16.40
2023-05-22T23:24:27.359Z,16.40
2023-05-22T23:26:54.211Z,16.30
2023-05-22T23:29:21.013Z,16.30
2023-05-22T23:31:48.308Z,16.30
2023-05-22T23:34:15.410Z,16.20
2023-05-22T23:36:42.243Z,16.20
2023-05-22T23:39:09.113Z,16.20
2023-05-22T23:41:35.812Z,16.20
2023-05-22T23:44:02.478Z,16.20
2023-05-22T23:46:29.377Z,16.20
2023-05-22T23:48:56.366Z,16.10
2023-05-22T23:51:23.124Z,16.10
2023-05-22T23:53:49.841Z,16.10
2023-05-22T23:56:16.956Z,16.10
2023-05-22T23:58:43.713Z,16.10
